Terminal Aerodrome Forecast
Issued by NWS

Home | Current Version | Previous Version | Text Only | Print | Product List | Glossary On
Versions: 1 2 3 4 5 6 7 8 9 10 11 12 13
983
FTUS46 KLOX 090009 AAA
TAFWJF
TAF AMD
KWJF 090009Z 0900/0924 08012G18KT P6SM SKC
     FM090400 05008KT P6SM SKC
     FM090800 VRB05KT P6SM SKC
     FM092200 05008KT P6SM SKC=

USA.gov is the U.S. government's official web portal to all federal, state and local government web resources and services.